sensor_id;sensor_type;location;lat;lon;timestamp;temperature;humidity
34873;DHT22;21084;51.098;14.506;2024-01-10T00:01:38;-13.90;99.90
34873;DHT22;21084;51.098;14.506;2024-01-10T00:04:07;-14.00;99.90
34873;DHT22;21084;51.098;14.506;2024-01-10T00:06:36;-14.00;99.90
34873;DHT22;21084;51.098;14.506;2024-01-10T00:09:04;-14.00;99.90
34873;DHT22;21084;51.098;14.506;2024-01-10T00:11:33;-14.00;99.90
34873;DHT22;21084;51.098;14.506;2024-01-10T00:14:02;-14.00;99.90
34873;DHT22;21084;51.098;14.506;2024-01-10T00:16:30;-14.00;99.90
34873;DHT22;21084;51.098;14.506;2024-01-10T00:19:00;-13.90;99.90
34873;DHT22;21084;51.098;14.506;2024-01-10T00:21:29;-13.90;99.90
34873;DHT22;21084;51.098;14.506;2024-01-10T00:23:58;-13.90;99.90
34873;DHT22;21084;51.098;14.506;2024-01-10T00:26:27;-14.00;99.90
34873;DHT22;21084;51.098;14.506;2024-01-10T00:28:55;-13.90;99.90
34873;DHT22;21084;51.098;14.506;2024-01-10T00:31:31;-13.90;99.90
34873;DHT22;21084;51.098;14.506;2024-01-10T00:34:01;-13.80;99.90
34873;DHT22;21084;51.098;14.506;2024-01-10T00:36:29;-13.70;99.90
34873;DHT22;21084;51.098;14.506;2024-01-10T00:38:58;-13.70;99.90
34873;DHT22;21084;51.098;14.506;2024-01-10T00:41:26;-13.70;99.90
34873;DHT22;21084;51.098;14.506;2024-01-10T00:43:55;-13.70;99.90
34873;DHT22;21084;51.098;14.506;2024-01-10T00:46:23;-13.80;99.90
34873;DHT22;21084;51.098;14.506;2024-01-10T00:48:52;-13.90;99.90
34873;DHT22;21084;51.098;14.506;2024-01-10T00:51:22;-13.90;99.90
34873;DHT22;21084;51.098;14.506;2024-01-10T00:53:50;-14.00;99.90
34873;DHT22;21084;51.098;14.506;2024-01-10T00:56:19;-14.00;99.90
34873;DHT22;21084;51.098;14.506;2024-01-10T00:58:47;-14.10;99.90
34873;DHT22;21084;51.098;14.506;2024-01-10T01:01:16;-14.00;99.90
34873;DHT22;21084;51.098;14.506;2024-01-10T01:03:45;-14.00;99.90
34873;DHT22;21084;51.098;14.506;2024-01-10T01:06:13;-14.00;99.90
34873;DHT22;21084;51.098;14.506;2024-01-10T01:08:43;-13.90;99.90
34873;DHT22;21084;51.098;14.506;2024-01-10T01:11:12;-13.90;99.90
34873;DHT22;21084;51.098;14.506;2024-01-10T01:13:41;-13.90;99.90
34873;DHT22;21084;51.098;14.506;2024-01-10T01:16:10;-14.00;99.90
34873;DHT22;21084;51.098;14.506;2024-01-10T01:18:39;-14.00;99.90
34873;DHT22;21084;51.098;14.506;2024-01-10T01:21:09;-14.00;99.90
34873;DHT22;21084;51.098;14.506;2024-01-10T01:23:38;-14.00;99.90
34873;DHT22;21084;51.098;14.506;2024-01-10T01:26:10;-14.00;99.90
34873;DHT22;21084;51.098;14.506;2024-01-10T01:28:40;-14.00;99.90
34873;DHT22;21084;51.098;14.506;2024-01-10T01:31:09;-13.90;99.90
34873;DHT22;21084;51.098;14.506;2024-01-10T01:33:38;-13.80;99.90
34873;DHT22;21084;51.098;14.506;2024-01-10T01:36:07;-13.80;99.90
34873;DHT22;21084;51.098;14.506;2024-01-10T01:38:35;-13.90;99.90
34873;DHT22;21084;51.098;14.506;2024-01-10T01:41:04;-14.00;99.90
34873;DHT22;21084;51.098;14.506;2024-01-10T01:43:35;-14.10;99.90
34873;DHT22;21084;51.098;14.506;2024-01-10T01:46:04;-14.10;99.90
34873;DHT22;21084;51.098;14.506;2024-01-10T01:48:32;-14.00;99.90
34873;DHT22;21084;51.098;14.506;2024-01-10T01:51:04;-14.10;99.90
34873;DHT22;21084;51.098;14.506;2024-01-10T01:53:34;-14.10;99.90
34873;DHT22;21084;51.098;14.506;2024-01-10T01:56:06;-14.10;99.90
34873;DHT22;21084;51.098;14.506;2024-01-10T01:58:37;-14.00;99.90
34873;DHT22;21084;51.098;14.506;2024-01-10T02:01:06;-14.10;99.90
34873;DHT22;21084;51.098;14.506;2024-01-10T02:03:34;-14.10;99.90
34873;DHT22;21084;51.098;14.506;2024-01-10T02:06:03;-14.10;99.90
34873;DHT22;21084;51.098;14.506;2024-01-10T02:08:32;-14.00;99.90
34873;DHT22;21084;51.098;14.506;2024-01-10T02:11:01;-14.00;99.90
34873;DHT22;21084;51.098;14.506;2024-01-10T02:13:31;-13.90;99.90
34873;DHT22;21084;51.098;14.506;2024-01-10T02:16:03;-13.90;99.90
34873;DHT22;21084;51.098;14.506;2024-01-10T02:18:32;-14.00;99.90
34873;DHT22;21084;51.098;14.506;2024-01-10T02:21:02;-14.00;99.90
34873;DHT22;21084;51.098;14.506;2024-01-10T02:23:31;-14.10;99.90
34873;DHT22;21084;51.098;14.506;2024-01-10T02:26:01;-14.10;99.90
34873;DHT22;21084;51.098;14.506;2024-01-10T02:28:29;-14.20;99.90
34873;DHT22;21084;51.098;14.506;2024-01-10T02:30:58;-14.20;99.90
34873;DHT22;21084;51.098;14.506;2024-01-10T02:33:27;-14.20;99.90
34873;DHT22;21084;51.098;14.506;2024-01-10T02:35:56;-14.10;99.90
34873;DHT22;21084;51.098;14.506;2024-01-10T02:38:24;-14.10;99.90
34873;DHT22;21084;51.098;14.506;2024-01-10T02:40:54;-14.10;99.90
34873;DHT22;21084;51.098;14.506;2024-01-10T02:43:24;-14.10;99.90
34873;DHT22;21084;51.098;14.506;2024-01-10T02:45:53;-14.00;99.90
34873;DHT22;21084;51.098;14.506;2024-01-10T02:48:21;-14.00;99.90
34873;DHT22;21084;51.098;14.506;2024-01-10T02:50:50;-14.00;99.90
34873;DHT22;21084;51.098;14.506;2024-01-10T02:53:19;-13.90;99.90
34873;DHT22;21084;51.098;14.506;2024-01-10T02:55:47;-14.00;99.90
34873;DHT22;21084;51.098;14.506;2024-01-10T02:58:17;-14.00;99.90
34873;DHT22;21084;51.098;14.506;2024-01-10T03:00:47;-14.00;99.90
34873;DHT22;21084;51.098;14.506;2024-01-10T03:03:15;-14.00;99.90
34873;DHT22;21084;51.098;14.506;2024-01-10T03:05:44;-14.00;99.90
34873;DHT22;21084;51.098;14.506;2024-01-10T03:08:12;-13.90;99.90
34873;DHT22;21084;51.098;14.506;2024-01-10T03:10:41;-14.00;99.90
34873;DHT22;21084;51.098;14.506;2024-01-10T03:13:09;-14.10;99.90
34873;DHT22;21084;51.098;14.506;2024-01-10T03:15:38;-14.10;99.90
34873;DHT22;21084;51.098;14.506;2024-01-10T03:18:08;-14.00;99.90
34873;DHT22;21084;51.098;14.506;2024-01-10T03:20:36;-14.00;99.90
34873;DHT22;21084;51.098;14.506;2024-01-10T03:23:05;-14.00;99.90
34873;DHT22;21084;51.098;14.506;2024-01-10T03:25:33;-14.00;99.90
34873;DHT22;21084;51.098;14.506;2024-01-10T03:28:02;-14.00;99.90
34873;DHT22;21084;51.098;14.506;2024-01-10T03:30:31;-14.00;99.90
34873;DHT22;21084;51.098;14.506;2024-01-10T03:33:00;-14.00;99.90
34873;DHT22;21084;51.098;14.506;2024-01-10T03:35:30;-14.10;99.90
34873;DHT22;21084;51.098;14.506;2024-01-10T03:37:59;-14.10;99.90
34873;DHT22;21084;51.098;14.506;2024-01-10T03:40:27;-14.10;99.90
34873;DHT22;21084;51.098;14.506;2024-01-10T03:42:56;-14.10;99.90
34873;DHT22;21084;51.098;14.506;2024-01-10T03:45:25;-14.10;99.90
34873;DHT22;21084;51.098;14.506;2024-01-10T03:47:54;-13.90;99.90
34873;DHT22;21084;51.098;14.506;2024-01-10T03:50:22;-13.90;99.90
34873;DHT22;21084;51.098;14.506;2024-01-10T03:52:52;-14.00;99.90
34873;DHT22;21084;51.098;14.506;2024-01-10T03:55:21;-14.00;99.90
34873;DHT22;21084;51.098;14.506;2024-01-10T03:57:49;-14.00;99.90
34873;DHT22;21084;51.098;14.506;2024-01-10T04:00:18;-14.10;99.90
34873;DHT22;21084;51.098;14.506;2024-01-10T04:02:47;-14.10;99.90
34873;DHT22;21084;51.098;14.506;2024-01-10T04:05:19;-14.10;99.90
34873;DHT22;21084;51.098;14.506;2024-01-10T04:07:47;-14.10;99.90
34873;DHT22;21084;51.098;14.506;2024-01-10T04:10:18;-14.10;99.90
34873;DHT22;21084;51.098;14.506;2024-01-10T04:12:46;-14.20;99.90
34873;DHT22;21084;51.098;14.506;2024-01-10T04:15:15;-14.20;99.90
34873;DHT22;21084;51.098;14.506;2024-01-10T04:17:44;-14.20;99.90
34873;DHT22;21084;51.098;14.506;2024-01-10T04:20:13;-14.20;99.90
34873;DHT22;21084;51.098;14.506;2024-01-10T04:22:42;-14.20;99.90
34873;DHT22;21084;51.098;14.506;2024-01-10T04:25:11;-14.10;99.90
34873;DHT22;21084;51.098;14.506;2024-01-10T04:27:41;-14.20;99.90
34873;DHT22;21084;51.098;14.506;2024-01-10T04:30:10;-14.20;99.90
34873;DHT22;21084;51.098;14.506;2024-01-10T04:32:38;-14.20;99.90
34873;DHT22;21084;51.098;14.506;2024-01-10T04:35:07;-14.10;99.90
34873;DHT22;21084;51.098;14.506;2024-01-10T04:37:37;-14.20;99.90
34873;DHT22;21084;51.098;14.506;2024-01-10T04:40:06;-14.10;99.90
34873;DHT22;21084;51.098;14.506;2024-01-10T04:42:35;-14.20;99.90
34873;DHT22;21084;51.098;14.506;2024-01-10T04:45:06;-14.20;99.90
34873;DHT22;21084;51.098;14.506;2024-01-10T04:47:35;-14.10;99.90
34873;DHT22;21084;51.098;14.506;2024-01-10T04:50:04;-14.00;99.90
34873;DHT22;21084;51.098;14.506;2024-01-10T04:52:38;-14.00;99.90
34873;DHT22;21084;51.098;14.506;2024-01-10T04:55:07;-13.90;99.90
34873;DHT22;21084;51.098;14.506;2024-01-10T04:57:38;-14.00;99.90
34873;DHT22;21084;51.098;14.506;2024-01-10T05:00:09;-14.00;99.90
34873;DHT22;21084;51.098;14.506;2024-01-10T05:02:37;-14.00;99.90
34873;DHT22;21084;51.098;14.506;2024-01-10T05:05:07;-14.00;99.90
34873;DHT22;21084;51.098;14.506;2024-01-10T05:07:35;-14.00;99.90
34873;DHT22;21084;51.098;14.506;2024-01-10T05:10:05;-14.00;99.90
34873;DHT22;21084;51.098;14.506;2024-01-10T05:12:34;-13.90;99.90
34873;DHT22;21084;51.098;14.506;2024-01-10T05:15:02;-13.90;99.90
34873;DHT22;21084;51.098;14.506;2024-01-10T05:17:33;-14.00;99.90
34873;DHT22;21084;51.098;14.506;2024-01-10T05:20:01;-14.00;99.90
34873;DHT22;21084;51.098;14.506;2024-01-10T05:22:30;-14.10;99.90
34873;DHT22;21084;51.098;14.506;2024-01-10T05:24:58;-14.10;99.90
34873;DHT22;21084;51.098;14.506;2024-01-10T05:27:27;-14.10;99.90
34873;DHT22;21084;51.098;14.506;2024-01-10T05:29:56;-14.10;99.90
34873;DHT22;21084;51.098;14.506;2024-01-10T05:32:24;-14.10;99.90
34873;DHT22;21084;51.098;14.506;2024-01-10T05:34:55;-14.00;99.90
34873;DHT22;21084;51.098;14.506;2024-01-10T05:37:23;-14.10;99.90
34873;DHT22;21084;51.098;14.506;2024-01-10T05:39:52;-14.10;99.90
34873;DHT22;21084;51.098;14.506;2024-01-10T05:42:20;-14.10;99.90
34873;DHT22;21084;51.098;14.506;2024-01-10T05:44:52;-14.10;99.90
34873;DHT22;21084;51.098;14.506;2024-01-10T05:47:20;-14.10;99.90
34873;DHT22;21084;51.098;14.506;2024-01-10T05:49:49;-14.10;99.90
34873;DHT22;21084;51.098;14.506;2024-01-10T05:52:19;-14.10;99.90
34873;DHT22;21084;51.098;14.506;2024-01-10T05:54:48;-14.10;99.90
34873;DHT22;21084;51.098;14.506;2024-01-10T05:57:16;-14.10;99.90
34873;DHT22;21084;51.098;14.506;2024-01-10T05:59:45;-14.10;99.90
34873;DHT22;21084;51.098;14.506;2024-01-10T06:02:13;-14.10;99.90
34873;DHT22;21084;51.098;14.506;2024-01-10T06:04:44;-14.10;99.90
34873;DHT22;21084;51.098;14.506;2024-01-10T06:07:13;-14.00;99.90
34873;DHT22;21084;51.098;14.506;2024-01-10T06:09:43;-14.00;99.90
34873;DHT22;21084;51.098;14.506;2024-01-10T06:12:12;-14.10;99.90
34873;DHT22;21084;51.098;14.506;2024-01-10T06:14:41;-14.10;99.90
34873;DHT22;21084;51.098;14.506;2024-01-10T06:17:11;-14.10;99.90
34873;DHT22;21084;51.098;14.506;2024-01-10T06:19:39;-14.00;99.90
34873;DHT22;21084;51.098;14.506;2024-01-10T06:22:08;-14.10;99.90
34873;DHT22;21084;51.098;14.506;2024-01-10T06:24:38;-14.10;99.90
34873;DHT22;21084;51.098;14.506;2024-01-10T06:27:09;-14.20;99.90
34873;DHT22;21084;51.098;14.506;2024-01-10T06:29:38;-14.20;99.90
34873;DHT22;21084;51.098;14.506;2024-01-10T06:32:06;-14.20;99.90
34873;DHT22;21084;51.098;14.506;2024-01-10T06:34:35;-14.30;99.90
34873;DHT22;21084;51.098;14.506;2024-01-10T06:37:03;-14.30;99.90
34873;DHT22;21084;51.098;14.506;2024-01-10T06:39:34;-14.30;99.90
34873;DHT22;21084;51.098;14.506;2024-01-10T06:42:03;-14.30;99.90
34873;DHT22;21084;51.098;14.506;2024-01-10T06:44:34;-14.30;99.90
34873;DHT22;21084;51.098;14.506;2024-01-10T06:47:03;-14.20;99.90
34873;DHT22;21084;51.098;14.506;2024-01-10T06:49:32;-14.20;99.90
34873;DHT22;21084;51.098;14.506;2024-01-10T06:52:00;-14.10;99.90
34873;DHT22;21084;51.098;14.506;2024-01-10T06:54:29;-14.00;99.90
34873;DHT22;21084;51.098;14.506;2024-01-10T06:56:58;-14.00;99.90
34873;DHT22;21084;51.098;14.506;2024-01-10T06:59:26;-14.00;99.90
34873;DHT22;21084;51.098;14.506;2024-01-10T07:01:56;-14.10;99.90
34873;DHT22;21084;51.098;14.506;2024-01-10T07:04:25;-14.10;99.90
34873;DHT22;21084;51.098;14.506;2024-01-10T07:06:55;-14.10;99.90
34873;DHT22;21084;51.098;14.506;2024-01-10T07:09:23;-14.10;99.90
34873;DHT22;21084;51.098;14.506;2024-01-10T07:11:52;-14.20;99.90
34873;DHT22;21084;51.098;14.506;2024-01-10T07:14:20;-14.20;99.90
34873;DHT22;21084;51.098;14.506;2024-01-10T07:16:49;-14.20;99.90
34873;DHT22;21084;51.098;14.506;2024-01-10T07:19:20;-14.10;99.90
34873;DHT22;21084;51.098;14.506;2024-01-10T07:21:53;-14.10;99.90
34873;DHT22;21084;51.098;14.506;2024-01-10T07:24:22;-14.00;99.90
34873;DHT22;21084;51.098;14.506;2024-01-10T07:26:51;-14.00;99.90
34873;DHT22;21084;51.098;14.506;2024-01-10T07:29:19;-13.90;99.90
34873;DHT22;21084;51.098;14.506;2024-01-10T07:31:48;-13.80;99.90
34873;DHT22;21084;51.098;14.506;2024-01-10T07:34:21;-13.80;99.90
34873;DHT22;21084;51.098;14.506;2024-01-10T07:36:49;-13.80;99.90
34873;DHT22;21084;51.098;14.506;2024-01-10T07:39:18;-13.80;99.90
34873;DHT22;21084;51.098;14.506;2024-01-10T07:41:47;-13.80;99.90
34873;DHT22;21084;51.098;14.506;2024-01-10T07:44:17;-13.80;99.90
34873;DHT22;21084;51.098;14.506;2024-01-10T07:46:45;-13.70;99.90
34873;DHT22;21084;51.098;14.506;2024-01-10T07:49:14;-13.70;99.90
34873;DHT22;21084;51.098;14.506;2024-01-10T07:51:45;-13.60;99.90
34873;DHT22;21084;51.098;14.506;2024-01-10T07:54:14;-13.50;99.90
34873;DHT22;21084;51.098;14.506;2024-01-10T07:56:43;-13.40;99.90
34873;DHT22;21084;51.098;14.506;2024-01-10T07:59:11;-13.30;99.90
34873;DHT22;21084;51.098;14.506;2024-01-10T08:01:44;-13.10;99.90
34873;DHT22;21084;51.098;14.506;2024-01-10T08:04:22;-13.00;99.90
34873;DHT22;21084;51.098;14.506;2024-01-10T08:06:52;-12.90;99.90
34873;DHT22;21084;51.098;14.506;2024-01-10T08:09:22;-12.80;99.90
34873;DHT22;21084;51.098;14.506;2024-01-10T08:11:51;-12.60;99.90
34873;DHT22;21084;51.098;14.506;2024-01-10T08:14:20;-12.40;99.90
34873;DHT22;21084;51.098;14.506;2024-01-10T08:16:49;-12.20;99.90
34873;DHT22;21084;51.098;14.506;2024-01-10T08:19:20;-11.90;99.90
34873;DHT22;21084;51.098;14.506;2024-01-10T08:21:49;-11.80;99.90
34873;DHT22;21084;51.098;14.506;2024-01-10T08:24:19;-11.60;99.90
34873;DHT22;21084;51.098;14.506;2024-01-10T08:26:48;-11.60;99.90
34873;DHT22;21084;51.098;14.506;2024-01-10T08:29:19;-11.50;99.90
34873;DHT22;21084;51.098;14.506;2024-01-10T08:31:48;-11.40;99.90
34873;DHT22;21084;51.098;14.506;2024-01-10T08:34:17;-11.40;99.90
34873;DHT22;21084;51.098;14.506;2024-01-10T08:36:46;-11.30;99.90
34873;DHT22;21084;51.098;14.506;2024-01-10T08:39:19;-11.30;99.90
34873;DHT22;21084;51.098;14.506;2024-01-10T08:41:49;-11.30;99.90
34873;DHT22;21084;51.098;14.506;2024-01-10T08:44:18;-11.20;99.90
34873;DHT22;21084;51.098;14.506;2024-01-10T08:46:46;-11.10;99.90
34873;DHT22;21084;51.098;14.506;2024-01-10T08:49:15;-11.00;99.90
34873;DHT22;21084;51.098;14.506;2024-01-10T08:51:44;-10.80;99.90
34873;DHT22;21084;51.098;14.506;2024-01-10T08:54:13;-10.70;99.90
34873;DHT22;21084;51.098;14.506;2024-01-10T08:56:45;-10.60;99.90
34873;DHT22;21084;51.098;14.506;2024-01-10T08:59:14;-10.40;99.90
34873;DHT22;21084;51.098;14.506;2024-01-10T09:01:43;-10.30;99.90
34873;DHT22;21084;51.098;14.506;2024-01-10T09:04:11;-10.20;99.90
34873;DHT22;21084;51.098;14.506;2024-01-10T09:06:40;-10.00;99.90
34873;DHT22;21084;51.098;14.506;2024-01-10T09:09:09;-9.90;99.90
34873;DHT22;21084;51.098;14.506;2024-01-10T09:11:37;-9.70;99.90
34873;DHT22;21084;51.098;14.506;2024-01-10T09:14:10;-9.30;99.90
34873;DHT22;21084;51.098;14.506;2024-01-10T09:16:38;-9.00;99.90
34873;DHT22;21084;51.098;14.506;2024-01-10T09:19:07;-8.80;99.90
34873;DHT22;21084;51.098;14.506;2024-01-10T09:21:39;-8.40;99.90
34873;DHT22;21084;51.098;14.506;2024-01-10T09:24:08;-8.30;99.90
34873;DHT22;21084;51.098;14.506;2024-01-10T09:26:54;-7.90;99.90
34873;DHT22;21084;51.098;14.506;2024-01-10T09:29:25;-7.80;99.90
34873;DHT22;21084;51.098;14.506;2024-01-10T09:31:54;-7.50;99.90
34873;DHT22;21084;51.098;14.506;2024-01-10T09:34:23;-7.40;99.90
34873;DHT22;21084;51.098;14.506;2024-01-10T09:36:52;-7.30;99.90
34873;DHT22;21084;51.098;14.506;2024-01-10T09:39:21;-7.10;99.90
34873;DHT22;21084;51.098;14.506;2024-01-10T09:41:50;-7.10;99.90
34873;DHT22;21084;51.098;14.506;2024-01-10T09:44:20;-7.10;99.90
34873;DHT22;21084;51.098;14.506;2024-01-10T09:46:53;-7.00;99.90
34873;DHT22;21084;51.098;14.506;2024-01-10T09:49:22;-7.00;99.90
34873;DHT22;21084;51.098;14.506;2024-01-10T09:51:58;-6.80;99.90
34873;DHT22;21084;51.098;14.506;2024-01-10T09:54:30;-6.70;99.90
34873;DHT22;21084;51.098;14.506;2024-01-10T09:56:58;-6.60;99.90
34873;DHT22;21084;51.098;14.506;2024-01-10T09:59:27;-6.50;99.90
34873;DHT22;21084;51.098;14.506;2024-01-10T10:01:57;-6.40;99.90
34873;DHT22;21084;51.098;14.506;2024-01-10T10:04:27;-6.10;99.90
34873;DHT22;21084;51.098;14.506;2024-01-10T10:06:58;-6.10;99.90
34873;DHT22;21084;51.098;14.506;2024-01-10T10:09:26;-5.80;99.90
34873;DHT22;21084;51.098;14.506;2024-01-10T10:11:56;-5.60;99.90
34873;DHT22;21084;51.098;14.506;2024-01-10T10:14:29;-5.60;99.90
34873;DHT22;21084;51.098;14.506;2024-01-10T10:20:03;-5.30;99.90
34873;DHT22;21084;51.098;14.506;2024-01-10T10:22:32;-4.80;99.90
34873;DHT22;21084;51.098;14.506;2024-01-10T10:25:01;-4.50;99.90
34873;DHT22;21084;51.098;14.506;2024-01-10T10:27:30;-4.40;99.90
34873;DHT22;21084;51.098;14.506;2024-01-10T10:29:59;-4.40;99.90
34873;DHT22;21084;51.098;14.506;2024-01-10T10:32:30;-4.20;99.90
34873;DHT22;21084;51.098;14.506;2024-01-10T10:35:00;-4.10;99.90
34873;DHT22;21084;51.098;14.506;2024-01-10T10:37:29;-4.10;99.90
34873;DHT22;21084;51.098;14.506;2024-01-10T10:39:57;-4.10;99.90
34873;DHT22;21084;51.098;14.506;2024-01-10T10:42:27;-3.80;99.90
34873;DHT22;21084;51.098;14.506;2024-01-10T10:45:02;-3.70;99.90
34873;DHT22;21084;51.098;14.506;2024-01-10T10:47:36;-3.60;99.90
34873;DHT22;21084;51.098;14.506;2024-01-10T10:50:12;-3.40;99.90
34873;DHT22;21084;51.098;14.506;2024-01-10T10:52:44;-3.30;99.90
34873;DHT22;21084;51.098;14.506;2024-01-10T10:55:15;-3.20;99.90
34873;DHT22;21084;51.098;14.506;2024-01-10T10:57:45;-3.20;99.90
34873;DHT22;21084;51.098;14.506;2024-01-10T11:00:31;-2.90;99.90
34873;DHT22;21084;51.098;14.506;2024-01-10T11:03:02;-2.80;99.90
34873;DHT22;21084;51.098;14.506;2024-01-10T11:05:33;-2.60;99.90
34873;DHT22;21084;51.098;14.506;2024-01-10T11:08:04;-2.40;99.90
34873;DHT22;21084;51.098;14.506;2024-01-10T11:10:35;-2.10;99.90
34873;DHT22;21084;51.098;14.506;2024-01-10T11:13:19;-1.90;99.90
34873;DHT22;21084;51.098;14.506;2024-01-10T11:16:22;-1.60;99.90
34873;DHT22;21084;51.098;14.506;2024-01-10T11:19:22;-1.30;99.90
34873;DHT22;21084;51.098;14.506;2024-01-10T11:22:08;-1.10;99.90
34873;DHT22;21084;51.098;14.506;2024-01-10T11:24:38;-1.10;99.90
34873;DHT22;21084;51.098;14.506;2024-01-10T11:27:11;-1.00;99.90
34873;DHT22;21084;51.098;14.506;2024-01-10T11:29:40;-1.00;99.90
34873;DHT22;21084;51.098;14.506;2024-01-10T11:32:14;-0.90;99.90
34873;DHT22;21084;51.098;14.506;2024-01-10T11:34:52;-0.60;99.90
34873;DHT22;21084;51.098;14.506;2024-01-10T11:37:27;-0.30;99.10
34873;DHT22;21084;51.098;14.506;2024-01-10T11:39:56;-0.20;99.90
34873;DHT22;21084;51.098;14.506;2024-01-10T11:42:41;-0.10;98.90
34873;DHT22;21084;51.098;14.506;2024-01-10T11:45:11;0.00;96.00
34873;DHT22;21084;51.098;14.506;2024-01-10T11:47:44;0.10;96.80
34873;DHT22;21084;51.098;14.506;2024-01-10T11:50:18;0.20;97.80
34873;DHT22;21084;51.098;14.506;2024-01-10T11:52:53;0.10;99.90
34873;DHT22;21084;51.098;14.506;2024-01-10T11:55:49;0.20;99.90
34873;DHT22;21084;51.098;14.506;2024-01-10T11:58:19;0.50;99.90
34873;DHT22;21084;51.098;14.506;2024-01-10T12:00:48;1.20;99.90
34873;DHT22;21084;51.098;14.506;2024-01-10T12:03:17;1.90;99.90
34873;DHT22;21084;51.098;14.506;2024-01-10T12:05:47;2.80;98.90
34873;DHT22;21084;51.098;14.506;2024-01-10T12:08:17;3.70;92.80
34873;DHT22;21084;51.098;14.506;2024-01-10T12:10:46;4.60;98.00
34873;DHT22;21084;51.098;14.506;2024-01-10T12:13:15;5.40;93.40
34873;DHT22;21084;51.098;14.506;2024-01-10T12:15:44;6.20;95.20
34873;DHT22;21084;51.098;14.506;2024-01-10T12:18:12;7.00;89.70
34873;DHT22;21084;51.098;14.506;2024-01-10T12:20:41;7.60;83.20
34873;DHT22;21084;51.098;14.506;2024-01-10T12:23:11;8.10;74.20
34873;DHT22;21084;51.098;14.506;2024-01-10T12:25:41;8.60;70.40
34873;DHT22;21084;51.098;14.506;2024-01-10T12:28:09;9.10;70.40
34873;DHT22;21084;51.098;14.506;2024-01-10T12:30:37;9.80;66.20
34873;DHT22;21084;51.098;14.506;2024-01-10T12:33:06;10.60;60.30
34873;DHT22;21084;51.098;14.506;2024-01-10T12:35:37;11.20;60.20
34873;DHT22;21084;51.098;14.506;2024-01-10T12:38:10;11.90;56.10
34873;DHT22;21084;51.098;14.506;2024-01-10T12:40:40;12.60;54.50
34873;DHT22;21084;51.098;14.506;2024-01-10T12:43:09;13.20;49.60
34873;DHT22;21084;51.098;14.506;2024-01-10T12:45:40;14.00;46.30
34873;DHT22;21084;51.098;14.506;2024-01-10T12:48:13;14.70;45.20
34873;DHT22;21084;51.098;14.506;2024-01-10T12:50:43;15.20;41.90
34873;DHT22;21084;51.098;14.506;2024-01-10T12:53:12;15.80;40.80
34873;DHT22;21084;51.098;14.506;2024-01-10T12:55:42;16.20;40.80
34873;DHT22;21084;51.098;14.506;2024-01-10T12:58:10;16.80;38.70
34873;DHT22;21084;51.098;14.506;2024-01-10T13:00:38;17.30;37.70
34873;DHT22;21084;51.098;14.506;2024-01-10T13:03:07;17.80;37.30
34873;DHT22;21084;51.098;14.506;2024-01-10T13:05:37;18.20;35.20
34873;DHT22;21084;51.098;14.506;2024-01-10T13:08:05;18.20;35.10
34873;DHT22;21084;51.098;14.506;2024-01-10T13:10:35;18.10;34.60
34873;DHT22;21084;51.098;14.506;2024-01-10T13:13:05;18.10;34.60
34873;DHT22;21084;51.098;14.506;2024-01-10T13:15:33;18.60;35.30
34873;DHT22;21084;51.098;14.506;2024-01-10T13:18:02;19.10;32.60
34873;DHT22;21084;51.098;14.506;2024-01-10T13:20:31;18.80;31.70
34873;DHT22;21084;51.098;14.506;2024-01-10T13:22:59;19.00;31.70
34873;DHT22;21084;51.098;14.506;2024-01-10T13:25:28;19.60;32.00
34873;DHT22;21084;51.098;14.506;2024-01-10T13:27:57;19.30;29.70
34873;DHT22;21084;51.098;14.506;2024-01-10T13:30:27;19.30;30.70
34873;DHT22;21084;51.098;14.506;2024-01-10T13:32:56;19.70;30.90
34873;DHT22;21084;51.098;14.506;2024-01-10T13:35:25;19.50;30.50
34873;DHT22;21084;51.098;14.506;2024-01-10T13:37:53;18.40;29.60
34873;DHT22;21084;51.098;14.506;2024-01-10T13:40:22;17.70;31.70
34873;DHT22;21084;51.098;14.506;2024-01-10T13:42:53;17.60;31.20
34873;DHT22;21084;51.098;14.506;2024-01-10T13:45:22;18.00;31.50
34873;DHT22;21084;51.098;14.506;2024-01-10T13:47:52;17.90;31.90
34873;DHT22;21084;51.098;14.506;2024-01-10T13:50:20;18.20;31.60
34873;DHT22;21084;51.098;14.506;2024-01-10T13:52:48;18.50;31.30
34873;DHT22;21084;51.098;14.506;2024-01-10T13:55:17;18.80;31.90
34873;DHT22;21084;51.098;14.506;2024-01-10T13:57:46;19.00;31.70
34873;DHT22;21084;51.098;14.506;2024-01-10T14:00:14;18.90;31.50
34873;DHT22;21084;51.098;14.506;2024-01-10T14:02:43;19.10;31.60
34873;DHT22;21084;51.098;14.506;2024-01-10T14:05:13;19.20;31.60
34873;DHT22;21084;51.098;14.506;2024-01-10T14:07:42;18.90;30.40
34873;DHT22;21084;51.098;14.506;2024-01-10T14:10:14;18.90;31.50
34873;DHT22;21084;51.098;14.506;2024-01-10T14:12:42;18.40;30.20
34873;DHT22;21084;51.098;14.506;2024-01-10T14:15:11;18.20;31.20
34873;DHT22;21084;51.098;14.506;2024-01-10T14:17:40;18.00;31.70
34873;DHT22;21084;51.098;14.506;2024-01-10T14:20:09;18.00;31.60
34873;DHT22;21084;51.098;14.506;2024-01-10T14:22:41;17.80;31.60
34873;DHT22;21084;51.098;14.506;2024-01-10T14:25:10;17.70;31.90
34873;DHT22;21084;51.098;14.506;2024-01-10T14:27:39;16.60;30.50
34873;DHT22;21084;51.098;14.506;2024-01-10T14:30:09;13.30;31.80
34873;DHT22;21084;51.098;14.506;2024-01-10T14:32:38;10.80;34.70
34873;DHT22;21084;51.098;14.506;2024-01-10T14:35:07;8.70;39.00
34873;DHT22;21084;51.098;14.506;2024-01-10T14:37:36;7.60;42.10
34873;DHT22;21084;51.098;14.506;2024-01-10T14:40:07;6.60;43.80
34873;DHT22;21084;51.098;14.506;2024-01-10T14:42:37;6.00;45.90
34873;DHT22;21084;51.098;14.506;2024-01-10T14:45:06;4.80;48.00
34873;DHT22;21084;51.098;14.506;2024-01-10T14:47:35;4.10;50.70
34873;DHT22;21084;51.098;14.506;2024-01-10T14:50:05;3.30;56.30
34873;DHT22;21084;51.098;14.506;2024-01-10T14:52:33;2.90;63.50
34873;DHT22;21084;51.098;14.506;2024-01-10T14:55:02;2.30;67.80
34873;DHT22;21084;51.098;14.506;2024-01-10T14:57:33;1.50;80.10
34873;DHT22;21084;51.098;14.506;2024-01-10T15:00:03;1.10;89.00
34873;DHT22;21084;51.098;14.506;2024-01-10T15:02:32;0.80;90.80
34873;DHT22;21084;51.098;14.506;2024-01-10T15:05:06;0.60;92.20
34873;DHT22;21084;51.098;14.506;2024-01-10T15:07:34;0.20;95.10
34873;DHT22;21084;51.098;14.506;2024-01-10T15:10:03;-0.20;96.80
34873;DHT22;21084;51.098;14.506;2024-01-10T15:12:34;-0.50;98.00
34873;DHT22;21084;51.098;14.506;2024-01-10T15:15:03;-0.80;99.30
34873;DHT22;21084;51.098;14.506;2024-01-10T15:17:31;-1.10;99.80
34873;DHT22;21084;51.098;14.506;2024-01-10T15:20:00;-1.30;99.50
34873;DHT22;21084;51.098;14.506;2024-01-10T15:22:29;-1.40;99.90
34873;DHT22;21084;51.098;14.506;2024-01-10T15:24:58;-1.60;99.90
34873;DHT22;21084;51.098;14.506;2024-01-10T15:27:28;-1.90;99.90